Time;durP1;ratioP1;P1;durP2;ratioP2;P2;SDS_P1;SDS_P2;PMS_P1;PMS_P2;Temp;Humidity;BMP_temperature;BMP_pressure;BME280_temperature;BME280_humidity;BME280_pressure;Samples;Min_cycle;Max_cycle;Signal;HPM_P1;HPM_P2
2022/01/27 00:32:49;;;;;;;27.03;14.37;;;;;;;;;;5027964;28;20284;-86
2022/01/27 00:35:48;;;;;;;;;;;;;;;;;;;;;
2022/01/27 00:41:19;;;;;;;30.53;14.67;;;;;;;;;;5015712;28;20224;-86
2022/01/27 01:03:25;;;;;;;26.10;14.30;;;;;;;;;;4995365;28;20225;-85
2022/01/27 01:06:19;;;;;;;22.87;13.83;;;;;;;;;;5032831;28;20300;-85
2022/01/27 01:12:39;;;;;;;25.60;14.30;;;;;;;;;;5032321;28;20287;-88
2022/01/27 01:15:27;;;;;;;24.17;15.07;;;;;;;;;;5032444;28;20209;-88
2022/01/27 01:18:18;;;;;;;23.07;14.17;;;;;;;;;;5008349;28;20209;-86
2022/01/27 01:21:16;;;;;;;25.73;14.63;;;;;;;;;;5033321;28;20271;-85
2022/01/27 01:49:13;;;;;;;24.67;14.03;;;;;;;;;;6254547;23;20210;-86
2022/01/27 01:52:14;;;;;;;26.47;14.60;;;;;;;;;;6252638;22;20201;-85
2022/01/27 02:01:10;;;;;;;24.50;14.07;;;;;;;;;;6158211;23;20225;-86
2022/01/27 04:03:38;;;;;;;26.10;13.97;;;;;;;;;;5757724;24;20208;-88
2022/01/27 04:12:36;;;;;;;;;;;;;;;;;;;;;
2022/01/27 04:15:42;;;;;;;24.73;13.80;;;;;;;;;;5816377;24;20181;-87
2022/01/27 04:28:02;;;;;;;21.43;13.07;;;;;;;;;;5769207;24;20195;-87
2022/01/27 04:43:19;;;;;;;;;;;;;;;;;;;;;
2022/01/27 05:05:06;;;;;;;21.10;11.97;;;;;;;;;;5905533;24;20186;-87
2022/01/27 05:11:23;;;;;;;;;;;;;;;;;;;;;
2022/01/27 08:52:06;;;;;;;31.30;15.47;;;;;;;;;;6236500;23;20303;-88
2022/01/27 09:03:30;;;;;;;28.03;13.97;;;;;;;;;;6122457;23;20175;-87
2022/01/27 09:06:03;;;;;;;28.53;13.50;;;;;;;;;;6145629;23;20177;-88
2022/01/27 09:08:32;;;;;;;25.50;13.50;;;;;;;;;;6151733;23;20198;-87
2022/01/27 09:11:03;;;;;;;28.37;13.93;;;;;;;;;;6152355;23;20237;-87
2022/01/27 09:13:31;;;;;;;22.93;12.97;;;;;;;;;;6152139;23;20198;-87
2022/01/27 09:46:46;;;;;;;16.70;10.27;;;;;;;;;;5870037;24;20168;-86
2022/01/27 09:52:33;;;;;;;18.23;10.43;;;;;;;;;;5979828;23;20241;-87
2022/01/27 09:55:03;;;;;;;17.47;10.13;;;;;;;;;;5984958;23;20323;-86
2022/01/27 09:57:36;;;;;;;16.90;10.37;;;;;;;;;;5983430;23;20230;-86
2022/01/27 10:00:16;;;;;;;18.20;10.53;;;;;;;;;;6098824;23;20250;-86
2022/01/27 10:05:52;;;;;;;14.40;8.83;;;;;;;;;;6122810;23;20181;-85
2022/01/27 10:11:16;;;;;;;16.20;9.57;;;;;;;;;;6117190;23;20199;-88
2022/01/27 10:13:47;;;;;;;14.13;8.80;;;;;;;;;;6138716;23;20189;-88
2022/01/27 10:16:34;;;;;;;16.07;9.30;;;;;;;;;;6216336;23;20165;-88
2022/01/27 11:21:59;;;;;;;12.50;8.80;;;;;;;;;;6267343;22;20222;-86
2022/01/27 11:37:00;;;;;;;14.27;8.90;;;;;;;;;;6280143;22;20333;-88
2022/01/27 11:39:51;;;;;;;13.70;8.97;;;;;;;;;;6280139;22;20259;-88
2022/01/27 11:45:40;;;;;;;14.67;9.17;;;;;;;;;;6183346;23;20169;-87
2022/01/27 11:48:19;;;;;;;14.17;9.77;;;;;;;;;;6278337;22;20171;-87
2022/01/27 11:50:57;;;;;;;14.40;9.60;;;;;;;;;;6276422;22;20202;-89
2022/01/27 11:53:46;;;;;;;13.43;9.27;;;;;;;;;;6276491;22;20183;-89
2022/01/27 12:25:01;;;;;;;12.30;9.20;;;;;;;;;;6127669;23;20176;-87
2022/01/27 12:30:49;;;;;;;12.93;9.00;;;;;;;;;;6126843;23;20331;-89
2022/01/27 12:42:47;;;;;;;;;;;;;;;;;;;;;
2022/01/27 12:45:26;;;;;;;11.60;8.70;;;;;;;;;;6275819;22;20199;-91
2022/01/27 12:48:28;;;;;;;13.53;8.97;;;;;;;;;;6278977;22;20172;-88
2022/01/27 12:57:34;;;;;;;11.00;7.93;;;;;;;;;;6253264;22;20196;-88
2022/01/27 13:06:29;;;;;;;12.30;8.60;;;;;;;;;;6257899;22;20278;-89
2022/01/27 13:09:11;;;;;;;16.43;9.53;;;;;;;;;;6280132;22;20247;-90
2022/01/27 13:11:48;;;;;;;11.40;8.53;;;;;;;;;;6280491;22;20168;-90
2022/01/27 13:14:34;;;;;;;10.93;8.10;;;;;;;;;;6280396;22;20183;-91
2022/01/27 13:17:10;;;;;;;14.93;9.40;;;;;;;;;;6279986;22;20245;-89
2022/01/27 13:19:42;;;;;;;11.37;7.97;;;;;;;;;;6281276;22;20167;-90
2022/01/27 13:22:16;;;;;;;13.10;8.33;;;;;;;;;;6280955;22;20172;-90
2022/01/27 13:25:03;;;;;;;10.73;8.73;;;;;;;;;;6282593;22;20163;-91
2022/01/27 13:30:17;;;;;;;10.93;8.07;;;;;;;;;;6279095;22;20178;-89
2022/01/27 13:33:07;;;;;;;12.80;9.53;;;;;;;;;;6281879;22;20198;-89
2022/01/27 13:38:38;;;;;;;13.43;9.60;;;;;;;;;;6280310;22;20179;-88
2022/01/27 13:41:18;;;;;;;12.97;9.30;;;;;;;;;;6277613;22;20168;-89
2022/01/27 13:43:56;;;;;;;12.27;8.33;;;;;;;;;;6276904;22;20167;-90
2022/01/27 13:46:47;;;;;;;11.40;8.67;;;;;;;;;;6277256;22;20266;-90
2022/01/27 13:49:34;;;;;;;13.33;10.03;;;;;;;;;;6277759;22;20168;-85
2022/01/27 14:23:25;;;;;;;11.43;8.50;;;;;;;;;;6246994;22;20188;-88
2022/01/27 15:20:21;;;;;;;9.90;7.40;;;;;;;;;;6294922;22;20179;-85
2022/01/27 15:22:54;;;;;;;11.77;7.87;;;;;;;;;;6277181;22;20380;-88
2022/01/27 15:25:27;;;;;;;12.53;8.67;;;;;;;;;;6296159;22;20270;-85
2022/01/27 15:27:55;;;;;;;9.07;7.27;;;;;;;;;;6292898;22;20191;-87
2022/01/27 15:30:29;;;;;;;10.80;8.27;;;;;;;;;;6290067;22;20218;-83
2022/01/27 15:33:04;;;;;;;11.60;7.80;;;;;;;;;;6287946;22;20196;-83
2022/01/27 15:35:41;;;;;;;11.93;8.80;;;;;;;;;;6289378;22;20168;-84
2022/01/27 15:38:08;;;;;;;11.67;8.47;;;;;;;;;;6287632;22;20195;-85
2022/01/27 15:40:45;;;;;;;12.33;8.73;;;;;;;;;;6286699;22;20176;-85
2022/01/27 15:43:20;;;;;;;11.80;9.23;;;;;;;;;;6288221;22;20194;-85
2022/01/27 15:45:51;;;;;;;13.80;8.47;;;;;;;;;;6287358;22;20175;-84
2022/01/27 15:48:25;;;;;;;11.33;8.50;;;;;;;;;;6283944;22;20224;-86
2022/01/27 15:50:59;;;;;;;11.00;8.43;;;;;;;;;;6282139;22;20168;-83
2022/01/27 15:53:38;;;;;;;12.33;8.40;;;;;;;;;;6282323;22;20187;-85
2022/01/27 15:56:28;;;;;;;;;;;;;;;;;;;;;
2022/01/27 15:59:31;;;;;;;;;;;;;;;;;;;;;
2022/01/27 16:02:42;;;;;;;12.27;8.60;;;;;;;;;;6250703;22;20155;-87
2022/01/27 16:05:34;;;;;;;13.57;8.70;;;;;;;;;;6098027;23;20176;-84
2022/01/27 16:08:15;;;;;;;12.40;9.03;;;;;;;;;;6253677;22;20172;-85
2022/01/27 16:10:49;;;;;;;13.77;9.27;;;;;;;;;;6281800;22;20164;-86
2022/01/27 16:13:35;;;;;;;18.23;12.80;;;;;;;;;;6283350;22;20218;-82
2022/01/27 16:16:17;;;;;;;16.13;10.70;;;;;;;;;;6283487;22;20199;-84
2022/01/27 16:19:12;;;;;;;10.73;7.30;;;;;;;;;;6283997;22;20160;-84
2022/01/27 16:21:49;;;;;;;13.43;8.70;;;;;;;;;;6250580;22;20175;-86
2022/01/27 16:27:40;;;;;;;9.73;6.80;;;;;;;;;;6217408;22;20186;-82
2022/01/27 16:33:23;;;;;;;9.50;7.67;;;;;;;;;;6283338;22;20248;-87
2022/01/27 16:41:55;;;;;;;9.63;7.43;;;;;;;;;;6266571;22;20176;-83
2022/01/27 16:56:51;;;;;;;10.40;8.00;;;;;;;;;;6264337;22;20172;-84
2022/01/27 17:05:47;;;;;;;9.93;7.47;;;;;;;;;;6176516;23;20264;-85
2022/01/27 17:08:20;;;;;;;8.53;6.87;;;;;;;;;;6184454;23;20177;-87
2022/01/27 17:10:58;;;;;;;10.17;7.43;;;;;;;;;;6184983;23;20174;-86
2022/01/27 17:13:31;;;;;;;9.10;6.93;;;;;;;;;;6204019;23;20203;-87
2022/01/27 17:16:04;;;;;;;9.60;7.17;;;;;;;;;;6218898;23;20200;-86
2022/01/27 17:18:41;;;;;;;9.67;7.40;;;;;;;;;;6223827;23;20166;-87
2022/01/27 17:24:21;;;;;;;8.37;6.77;;;;;;;;;;6220360;22;20269;-90
2022/01/27 17:27:00;;;;;;;10.93;8.00;;;;;;;;;;6238406;22;20193;-89
2022/01/27 17:29:28;;;;;;;9.60;7.50;;;;;;;;;;6237316;22;20169;-83
2022/01/27 17:32:16;;;;;;;9.67;7.43;;;;;;;;;;6231310;23;20193;-86
2022/01/27 17:38:02;;;;;;;;;;;;;;;;;;;;;
2022/01/27 17:40:56;;;;;;;9.67;7.07;;;;;;;;;;6289054;22;20147;-85
2022/01/27 17:43:58;;;;;;;10.03;6.73;;;;;;;;;;6283581;22;20204;-84
2022/01/27 17:52:59;;;;;;;;;;;;;;;;;;;;;
2022/01/27 17:55:36;;;;;;;11.73;8.37;;;;;;;;;;6286768;22;20170;-85
2022/01/27 17:58:06;;;;;;;11.40;8.33;;;;;;;;;;6286994;22;20178;-86
2022/01/27 18:00:48;;;;;;;10.07;8.07;;;;;;;;;;6287344;22;20180;-85
2022/01/27 18:12:31;;;;;;;12.10;9.47;;;;;;;;;;6159645;23;20214;-84
2022/01/27 18:15:00;;;;;;;12.13;9.13;;;;;;;;;;6077367;23;20203;-86
2022/01/27 18:17:35;;;;;;;11.97;9.30;;;;;;;;;;6158842;23;20167;-84
2022/01/27 18:20:04;;;;;;;12.50;10.10;;;;;;;;;;6166195;23;20174;-83
2022/01/27 18:22:34;;;;;;;12.67;9.27;;;;;;;;;;6164224;23;20195;-80
2022/01/27 18:25:05;;;;;;;10.60;8.20;;;;;;;;;;6161551;23;20171;-84
2022/01/27 18:27:35;;;;;;;11.57;8.50;;;;;;;;;;6165206;23;20197;-84
2022/01/27 18:30:08;;;;;;;9.80;8.00;;;;;;;;;;6165100;23;20227;-84
2022/01/27 18:32:36;;;;;;;12.00;8.77;;;;;;;;;;6166540;23;20199;-84
2022/01/27 18:35:03;;;;;;;12.37;8.73;;;;;;;;;;6161785;23;20265;-82
2022/01/27 18:37:33;;;;;;;11.77;9.20;;;;;;;;;;6164040;23;20175;-84
2022/01/27 18:40:02;;;;;;;12.60;10.13;;;;;;;;;;6165602;23;20183;-84
2022/01/27 18:42:29;;;;;;;11.17;8.50;;;;;;;;;;6179632;23;20201;-84
2022/01/27 18:45:00;;;;;;;12.53;9.33;;;;;;;;;;6227906;23;20169;-85
2022/01/27 18:47:29;;;;;;;9.67;7.37;;;;;;;;;;6287997;22;20231;-82
2022/01/27 18:49:58;;;;;;;9.37;7.33;;;;;;;;;;6296667;22;20184;-81
2022/01/27 18:52:28;;;;;;;9.73;8.00;;;;;;;;;;6294018;22;20188;-84
2022/01/27 18:55:26;;;;;;;11.00;7.43;;;;;;;;;;6290026;22;20192;-85
2022/01/27 18:58:08;;;;;;;10.00;6.53;;;;;;;;;;6281508;22;20186;-85
2022/01/27 19:00:51;;;;;;;6.47;5.40;;;;;;;;;;6283047;22;20171;-84
2022/01/27 19:03:23;;;;;;;5.90;4.33;;;;;;;;;;6290412;22;20203;-85
2022/01/27 19:05:52;;;;;;;5.10;4.53;;;;;;;;;;6279554;22;20243;-89
2022/01/27 19:08:20;;;;;;;6.20;4.23;;;;;;;;;;6278383;22;20172;-88
2022/01/27 19:10:51;;;;;;;4.63;4.07;;;;;;;;;;6279053;22;20631;-89
2022/01/27 19:13:24;;;;;;;4.57;3.43;;;;;;;;;;6295926;22;20214;-91
2022/01/27 19:15:58;;;;;;;3.80;3.10;;;;;;;;;;6287575;22;20156;-90
2022/01/27 19:18:28;;;;;;;4.43;3.50;;;;;;;;;;6278272;22;20168;-89
2022/01/27 19:20:57;;;;;;;4.83;3.03;;;;;;;;;;6278189;22;20266;-89
2022/01/27 19:23:36;;;;;;;4.03;2.97;;;;;;;;;;6277627;22;20250;-90
2022/01/27 19:26:10;;;;;;;4.23;3.40;;;;;;;;;;6278569;22;20227;-87
2022/01/27 19:28:37;;;;;;;3.57;2.63;;;;;;;;;;6278647;22;20167;-91
2022/01/27 19:31:07;;;;;;;3.47;3.07;;;;;;;;;;6279133;22;20217;-87
2022/01/27 19:33:37;;;;;;;8.30;3.00;;;;;;;;;;6282207;22;20226;-83
2022/01/27 19:36:11;;;;;;;3.30;2.33;;;;;;;;;;6283342;22;20254;-84
2022/01/27 19:38:39;;;;;;;2.30;2.10;;;;;;;;;;6281754;22;20160;-85
2022/01/27 19:41:09;;;;;;;3.43;2.07;;;;;;;;;;6285457;22;20172;-85
2022/01/27 19:43:42;;;;;;;4.97;2.30;;;;;;;;;;6297089;22;20213;-86
2022/01/27 19:46:10;;;;;;;2.33;2.10;;;;;;;;;;6313447;22;20162;-84
2022/01/27 19:48:39;;;;;;;2.00;1.90;;;;;;;;;;6310572;22;20168;-87
2022/01/27 19:51:13;;;;;;;2.57;2.13;;;;;;;;;;6310658;22;20174;-86
2022/01/27 19:53:42;;;;;;;1.60;1.50;;;;;;;;;;6310704;22;20187;-86
2022/01/27 19:56:13;;;;;;;2.17;1.97;;;;;;;;;;6311759;22;20239;-86
2022/01/27 19:58:41;;;;;;;2.50;2.30;;;;;;;;;;6310602;22;20190;-88
2022/01/27 20:01:08;;;;;;;3.50;2.67;;;;;;;;;;6308636;22;20171;-87
2022/01/27 20:03:38;;;;;;;4.60;2.30;;;;;;;;;;6310787;22;20195;-86
2022/01/27 20:06:07;;;;;;;2.10;1.90;;;;;;;;;;6309920;22;20171;-86
2022/01/27 20:08:36;;;;;;;2.70;2.10;;;;;;;;;;6310618;22;20171;-87
2022/01/27 20:11:04;;;;;;;2.30;2.10;;;;;;;;;;6310689;22;20250;-86
2022/01/27 20:13:37;;;;;;;2.73;2.50;;;;;;;;;;6310868;22;20191;-87
2022/01/27 20:16:06;;;;;;;3.50;2.60;;;;;;;;;;6310815;22;20176;-86
2022/01/27 20:18:36;;;;;;;3.77;2.90;;;;;;;;;;6309902;22;20175;-87
2022/01/27 20:21:06;;;;;;;2.50;2.30;;;;;;;;;;6311451;22;20241;-86
2022/01/27 20:23:37;;;;;;;2.47;2.13;;;;;;;;;;6311238;22;20191;-88
2022/01/27 20:26:05;;;;;;;2.40;2.20;;;;;;;;;;6311075;22;20160;-84
2022/01/27 20:28:33;;;;;;;2.63;2.27;;;;;;;;;;6310424;22;20242;-85
2022/01/27 20:31:04;;;;;;;2.50;2.30;;;;;;;;;;6310034;22;20171;-87
2022/01/27 20:33:34;;;;;;;2.80;2.60;;;;;;;;;;6313200;22;20253;-84
2022/01/27 20:36:08;;;;;;;3.80;2.90;;;;;;;;;;6310993;22;20194;-86
2022/01/27 20:38:39;;;;;;;3.30;2.83;;;;;;;;;;6310501;22;20706;-86
2022/01/27 20:41:09;;;;;;;3.33;2.77;;;;;;;;;;6310767;22;20238;-86
2022/01/27 20:43:37;;;;;;;5.07;3.13;;;;;;;;;;6310372;22;20301;-85
2022/01/27 20:46:11;;;;;;;3.90;3.13;;;;;;;;;;6312709;22;20170;-88
2022/01/27 20:48:43;;;;;;;3.53;3.20;;;;;;;;;;6309406;22;20187;-86
2022/01/27 20:51:10;;;;;;;3.97;3.13;;;;;;;;;;6313113;22;20176;-82
2022/01/27 20:53:47;;;;;;;4.13;3.23;;;;;;;;;;6314871;22;20210;-84
2022/01/27 20:56:15;;;;;;;4.33;3.37;;;;;;;;;;6316265;22;20182;-83
2022/01/27 20:58:43;;;;;;;3.57;3.27;;;;;;;;;;6317737;22;20193;-85
2022/01/27 21:01:13;;;;;;;3.63;3.20;;;;;;;;;;6318632;22;20172;-84
2022/01/27 21:03:41;;;;;;;4.40;3.13;;;;;;;;;;6319404;22;20255;-83
2022/01/27 21:06:08;;;;;;;3.17;2.87;;;;;;;;;;6319274;22;20167;-83
2022/01/27 21:08:36;;;;;;;3.30;3.00;;;;;;;;;;6317622;22;20179;-84
2022/01/27 21:11:09;;;;;;;4.03;2.70;;;;;;;;;;6319049;22;20206;-84
